This is the latest recevied weather packets stored in our database for station/object KG4QXL-2. If no packets are shown the sender has not sent any weather packets the latest 10 day(s).
| Time | Temp. | Humidity | Pressure | Rain* | Wind** | Luminosity | Snow |
|---|---|---|---|---|---|---|---|
| 1777618519 | 6.11° C | 90% | 1009 hPa | 0 mm | - | 0 W/m² | - |
| 1777616720 | 6.67° C | 89% | 1009 hPa | 0 mm | - | 0 W/m² | - |
| 1777614959 | 7.22° C | 86% | 1009 hPa | 0 mm | - | 0 W/m² | - |
| 1777614319 | 7.78° C | 83% | 1009 hPa | 0 mm | - | 0 W/m² | - |
| 1777613719 | 7.78° C | 81% | 1009 hPa | 0 mm | - | 0 W/m² | - |
| 1777610119 | 8.89° C | 73% | 1008.9 hPa | 0 mm | - | 0 W/m² | - |
| 1777603519 | 11.11° C | 66% | 1008.7 hPa | 0 mm | - | 0 W/m² | - |
| 1777601719 | 11.67° C | 60% | 1008.3 hPa | 0 mm | - | 0 W/m² | - |
| 1777593939 | 14.44° C | 58% | 1006.4 hPa | 0 mm | - | 0 W/m² | - |
| 1777592719 | 15° C | 56% | 1005.9 hPa | 0 mm | - | 0 W/m² | - |
| 1777590319 | 16.67° C | 49% | 1004.9 hPa | 0 mm | - | 1 W/m² | - |
| 1777587919 | 17.78° C | 47% | 1004.3 hPa | 0 mm | - | 5 W/m² | - |
| 1777583720 | 18.89° C | 40% | 1003.3 hPa | 0 mm | - | 4 W/m² | - |
| 1777582519 | 19.44° C | 39% | 1003.2 hPa | 0 mm | - | 7 W/m² | - |
| 1777580719 | 18.33° C | 43% | 1003 hPa | 0 mm | - | 8 W/m² | - |
| 1777577119 | 18.89° C | 43% | 1002.7 hPa | 0 mm | - | 13 W/m² | - |
| 1777575919 | 18.89° C | 47% | 1002.7 hPa | 0 mm | - | 17 W/m² | - |
| 1777572919 | 18.33° C | 50% | 1002.9 hPa | 0 mm | - | 20 W/m² | - |
| 1777572339 | 18.33° C | 51% | 1003 hPa | 0 mm | - | 22 W/m² | - |
| 1777570519 | 18.33° C | 48% | 1003 hPa | 0 mm | - | 31 W/m² | - |
| 1777565119 | 16.67° C | 61% | 1003.7 hPa | 0 mm | - | 59 W/m² | - |
| 1777564519 | 16.67° C | 61% | 1003.8 hPa | 0 mm | - | 14 W/m² | - |
| 1777563919 | 16.11° C | 60% | 1004.1 hPa | 0 mm | - | 24 W/m² | - |
| 1777559719 | 15.56° C | 66% | 1004.3 hPa | 0 mm | - | 10 W/m² | - |
| 1777557319 | 13.89° C | 86% | 1004.4 hPa | 0 mm | - | 17 W/m² | - |
* Rain latest hour (hover to see other rain measurements)
** Current wind speed in m/s (hover to see current wind gust speed)